Time;durP1;ratioP1;P1;durP2;ratioP2;P2;SDS_P1;SDS_P2;PMS_P1;PMS_P2;Temp;Humidity;BMP_temperature;BMP_pressure;BME280_temperature;BME280_humidity;BME280_pressure;Samples;Min_cycle;Max_cycle;Signal;HPM_P1;HPM_P2
2022/07/18 00:02:08;;;;;;;3.97;2.03;;;;;;;23.29;46.03;99380.53;5027291;28;20473;-70
2022/07/18 00:04:33;;;;;;;4.32;1.50;;;;;;;23.35;46.28;99389.66;5028068;28;20036;-72
2022/07/18 00:06:59;;;;;;;3.38;1.55;;;;;;;23.36;46.33;99380.53;5029664;28;20045;-68
2022/07/18 00:09:25;;;;;;;2.65;1.60;;;;;;;23.40;46.31;99387.16;5035328;28;20100;-71
2022/07/18 00:11:51;;;;;;;5.38;1.70;;;;;;;23.40;46.62;99381.78;5027560;28;20034;-72
2022/07/18 00:14:18;;;;;;;3.78;1.55;;;;;;;23.36;46.21;99377.00;5027459;28;20250;-71
2022/07/18 00:16:44;;;;;;;6.57;1.50;;;;;;;23.35;46.17;99386.13;5027451;28;20041;-73
2022/07/18 00:19:09;;;;;;;6.38;1.48;;;;;;;23.35;46.52;99373.44;5027750;28;20046;-72
2022/07/18 00:21:35;;;;;;;3.35;1.48;;;;;;;23.39;46.40;99385.50;5027777;28;20030;-73
2022/07/18 00:24:01;;;;;;;4.10;1.40;;;;;;;23.38;46.06;99383.84;5027876;28;20030;-74
2022/07/18 00:26:27;;;;;;;2.97;1.50;;;;;;;23.40;46.30;99378.22;5027728;28;20091;-73
2022/07/18 00:28:53;;;;;;;2.30;1.23;;;;;;;23.41;45.88;99375.34;5027707;28;20295;-71
2022/07/18 00:31:18;;;;;;;4.88;1.50;;;;;;;23.44;45.92;99380.31;5027825;28;20081;-71
2022/07/18 00:33:44;;;;;;;3.00;1.50;;;;;;;23.46;45.64;99374.69;5027857;28;20234;-71
2022/07/18 00:36:10;;;;;;;5.70;1.50;;;;;;;23.47;46.10;99371.78;5027490;28;20085;-71
2022/07/18 00:38:35;;;;;;;2.95;1.27;;;;;;;23.50;45.93;99380.50;5027760;28;20025;-70
2022/07/18 00:41:01;;;;;;;3.70;1.73;;;;;;;23.50;45.90;99380.50;5027553;28;20143;-71
2022/07/18 00:43:26;;;;;;;2.60;1.60;;;;;;;23.49;45.89;99374.28;5013214;28;20085;-70
2022/07/18 00:45:52;;;;;;;3.72;1.73;;;;;;;23.50;45.77;99380.50;5008040;28;20062;-70
2022/07/18 00:48:18;;;;;;;2.47;1.23;;;;;;;23.50;45.83;99375.09;5007937;28;20089;-71
2022/07/18 00:50:45;;;;;;;3.45;2.05;;;;;;;23.52;45.81;99379.28;5007744;28;20128;-71
2022/07/18 00:53:11;;;;;;;3.17;1.55;;;;;;;23.51;45.83;99379.47;5007545;28;20026;-71
2022/07/18 00:55:46;;;;;;;3.47;1.73;;;;;;;23.50;45.92;99375.09;5007520;28;20026;-71
2022/07/18 00:58:13;;;;;;;2.83;1.67;;;;;;;23.52;45.89;99373.88;5007541;28;20093;-71
2022/07/18 01:03:23;;;;;;;2.55;1.35;;;;;;;23.51;45.86;99376.75;5007330;28;20254;-71
2022/07/18 01:05:49;;;;;;;4.60;1.50;;;;;;;23.46;45.78;99380.09;5007418;28;20026;-71
2022/07/18 01:08:15;;;;;;;5.00;1.45;;;;;;;23.44;45.89;99374.06;5025333;28;20072;-70
2022/07/18 01:10:41;;;;;;;2.10;1.48;;;;;;;23.46;45.75;99370.13;5027110;28;20029;-70
2022/07/18 01:13:06;;;;;;;2.60;1.33;;;;;;;23.49;45.77;99373.44;5026701;28;20017;-70
2022/07/18 01:15:32;;;;;;;3.10;1.70;;;;;;;23.49;45.56;99360.78;5026584;28;20048;-71
2022/07/18 01:17:57;;;;;;;2.05;1.48;;;;;;;23.52;45.60;99362.22;5026983;28;20084;-71
2022/07/18 01:20:30;;;;;;;2.28;1.40;;;;;;;23.54;45.71;99365.56;5026881;28;20034;-71
2022/07/18 01:22:57;;;;;;;3.15;1.58;;;;;;;23.54;45.68;99365.56;5026819;28;20131;-71
2022/07/18 01:25:22;;;;;;;2.83;1.40;;;;;;;23.53;45.48;99364.72;5026751;28;20062;-71
2022/07/18 01:27:48;;;;;;;3.20;1.55;;;;;;;23.55;45.52;99356.41;5026808;28;20242;-71
2022/07/18 01:30:14;;;;;;;2.13;1.50;;;;;;;23.55;45.27;99367.22;5026935;28;20136;-71
2022/07/18 01:32:41;;;;;;;2.55;1.25;;;;;;;23.56;45.25;99363.47;5026800;28;20179;-71
2022/07/18 01:35:06;;;;;;;2.20;1.23;;;;;;;23.58;45.39;99358.69;5026754;28;20238;-71
2022/07/18 01:37:32;;;;;;;3.15;1.10;;;;;;;23.62;45.06;99368.00;5026652;28;20026;-71
2022/07/18 01:39:57;;;;;;;1.70;1.10;;;;;;;23.59;45.58;99365.75;5026750;28;20239;-71
2022/07/18 01:42:23;;;;;;;2.20;1.30;;;;;;;23.57;45.31;99365.13;5026457;28;20044;-72
2022/07/18 01:44:49;;;;;;;5.05;1.40;;;;;;;23.56;45.37;99369.69;5026773;28;20060;-70
2022/07/18 01:47:15;;;;;;;1.80;1.48;;;;;;;23.56;45.25;99361.59;5026687;28;20101;-71
2022/07/18 01:49:42;;;;;;;1.92;1.30;;;;;;;23.59;45.46;99365.75;5026698;28;20060;-71
2022/07/18 01:52:08;;;;;;;3.28;1.80;;;;;;;23.60;45.35;99370.13;5026635;28;20030;-70
2022/07/18 01:54:36;;;;;;;2.50;1.55;;;;;;;23.59;45.48;99361.19;5010377;28;20098;-71
2022/07/18 01:57:03;;;;;;;4.22;1.58;;;;;;;23.59;45.23;99358.47;5006796;28;20088;-70
2022/07/18 01:59:30;;;;;;;4.63;1.80;;;;;;;23.59;45.45;99357.66;5006925;28;20048;-71
2022/07/18 02:01:55;;;;;;;1.77;1.00;;;;;;;23.60;45.14;99365.53;5007156;28;20097;-71
2022/07/18 02:04:59;;;;;;;2.72;1.30;;;;;;;23.60;45.13;99354.72;5006903;28;20030;-71
2022/07/18 02:07:06;;;;;;;4.00;1.50;;;;;;;23.60;45.43;99354.72;5015130;28;20034;-71
2022/07/18 02:09:32;;;;;;;3.63;1.63;;;;;;;23.62;45.38;99351.81;5026452;28;20053;-71
2022/07/18 02:11:57;;;;;;;4.13;1.58;;;;;;;23.64;45.02;99354.31;5026345;28;20243;-71
2022/07/18 02:14:22;;;;;;;2.28;1.40;;;;;;;23.66;45.11;99349.53;5026366;28;20085;-71
2022/07/18 02:16:48;;;;;;;2.13;1.30;;;;;;;23.65;45.22;99346.00;5026298;28;20034;-71
2022/07/18 02:19:13;;;;;;;3.25;1.48;;;;;;;23.65;45.04;99350.56;5026443;28;20293;-71
2022/07/18 02:21:39;;;;;;;2.45;1.45;;;;;;;23.68;44.83;99353.69;5026337;28;20033;-71
2022/07/18 02:24:04;;;;;;;1.83;1.10;;;;;;;23.68;44.68;99353.69;5026398;28;20022;-71
2022/07/18 02:26:30;;;;;;;1.63;1.23;;;;;;;23.70;44.83;99353.47;5009018;28;20120;-71
2022/07/18 02:28:55;;;;;;;2.72;1.30;;;;;;;23.68;45.22;99356.38;5010269;28;20093;-71
2022/07/18 02:31:23;;;;;;;3.15;1.50;;;;;;;23.65;45.11;99346.00;5010291;28;20033;-71
2022/07/18 02:33:49;;;;;;;3.92;1.45;;;;;;;23.65;45.07;99351.41;5010173;28;20046;-70
2022/07/18 02:36:14;;;;;;;2.88;1.88;;;;;;;23.67;45.45;99353.91;5010183;28;20061;-71
2022/07/18 02:38:40;;;;;;;1.73;1.30;;;;;;;23.65;44.72;99353.28;5010154;28;20232;-70
2022/07/18 02:41:05;;;;;;;2.47;1.35;;;;;;;23.67;44.98;99348.50;5009409;28;20025;-71
2022/07/18 02:43:31;;;;;;;2.35;1.58;;;;;;;23.65;45.42;99348.69;4998474;28;20125;-70
2022/07/18 02:45:56;;;;;;;2.85;1.50;;;;;;;23.64;45.39;99344.34;4990491;28;20040;-71
2022/07/18 02:48:22;;;;;;;1.90;1.35;;;;;;;23.68;45.23;99350.13;4990409;28;20151;-71
2022/07/18 02:50:47;;;;;;;1.83;1.25;;;;;;;23.69;44.93;99347.25;4990435;28;20089;-71
2022/07/18 02:53:13;;;;;;;2.17;1.13;;;;;;;23.64;45.17;99344.34;4990233;28;20247;-71
2022/07/18 02:55:38;;;;;;;2.08;1.15;;;;;;;23.69;45.13;99352.63;4990319;28;20034;-71
2022/07/18 02:58:03;;;;;;;2.30;1.30;;;;;;;23.70;45.30;99358.84;4990300;28;20033;-71
2022/07/18 03:00:29;;;;;;;2.92;1.65;;;;;;;23.69;45.35;99351.78;4990296;28;20026;-72
2022/07/18 03:02:54;;;;;;;4.45;1.20;;;;;;;23.70;45.18;99354.31;4990028;28;20023;-71
2022/07/18 03:05:20;;;;;;;1.60;1.20;;;;;;;23.71;45.17;99352.41;4990144;28;20030;-72
2022/07/18 03:07:46;;;;;;;3.28;1.50;;;;;;;23.69;45.20;99343.69;5003658;28;20054;-72
2022/07/18 03:10:11;;;;;;;2.25;1.40;;;;;;;23.68;45.06;99342.88;5009876;28;20048;-72
2022/07/18 03:12:37;;;;;;;2.88;1.42;;;;;;;23.68;45.07;99345.56;5009554;28;20049;-71
2022/07/18 03:15:03;;;;;;;2.65;1.52;;;;;;;23.69;44.74;99347.25;5009343;28;20033;-73
2022/07/18 03:17:28;;;;;;;3.40;1.50;;;;;;;23.70;45.00;99354.31;5009463;28;20040;-71
2022/07/18 03:19:54;;;;;;;2.55;1.30;;;;;;;23.72;44.87;99354.94;5008519;28;20112;-70
2022/07/18 03:22:19;;;;;;;5.45;1.17;;;;;;;23.70;44.92;99353.47;5009307;28;20092;-70
2022/07/18 03:24:45;;;;;;;2.38;1.45;;;;;;;23.73;44.54;99359.28;5009314;28;20034;-71
2022/07/18 03:27:10;;;;;;;1.73;1.10;;;;;;;23.73;44.92;99359.28;5027669;28;20053;-71
2022/07/18 03:29:36;;;;;;;2.80;1.45;;;;;;;23.72;44.80;99354.94;5028840;28;20029;-71
2022/07/18 03:32:01;;;;;;;5.28;1.55;;;;;;;23.73;44.74;99356.59;5028736;28;20030;-71
2022/07/18 03:34:26;;;;;;;4.35;1.50;;;;;;;23.73;44.52;99359.28;5028796;28;20166;-69
2022/07/18 03:36:52;;;;;;;2.33;1.35;;;;;;;23.72;44.43;99351.38;5027734;28;20075;-69
2022/07/18 03:39:17;;;;;;;5.00;1.30;;;;;;;23.71;44.75;99350.56;5028611;28;20044;-69
2022/07/18 03:41:43;;;;;;;2.50;1.27;;;;;;;23.74;44.61;99349.31;5027585;28;20025;-69
2022/07/18 03:44:09;;;;;;;1.63;1.02;;;;;;;23.74;44.28;99350.16;5008956;28;20087;-69
2022/07/18 03:46:35;;;;;;;7.55;1.45;;;;;;;23.76;44.27;99348.03;5008881;28;20085;-69
2022/07/18 03:49:00;;;;;;;4.43;1.45;;;;;;;23.70;44.31;99350.75;5008902;28;20228;-69
2022/07/18 03:51:26;;;;;;;4.38;1.48;;;;;;;23.67;44.47;99351.19;5008858;28;20090;-69
2022/07/18 03:53:52;;;;;;;2.03;1.23;;;;;;;23.70;44.31;99351.59;5012140;28;20026;-71
2022/07/18 03:56:17;;;;;;;4.82;1.45;;;;;;;23.67;44.15;99353.91;5028279;28;20250;-71
2022/07/18 03:58:43;;;;;;;2.70;1.35;;;;;;;23.64;44.51;99347.03;5028275;28;20030;-72
2022/07/18 04:01:08;;;;;;;1.83;1.10;;;;;;;23.63;44.54;99353.47;5028167;28;20033;-72
2022/07/18 04:03:34;;;;;;;1.80;1.08;;;;;;;23.66;44.49;99358.47;5025899;28;20048;-72
2022/07/18 04:05:59;;;;;;;2.95;1.65;;;;;;;23.70;44.57;99353.47;5008635;28;20022;-71
2022/07/18 04:08:25;;;;;;;4.28;1.65;;;;;;;23.71;44.27;99355.97;5027542;28;20139;-72
2022/07/18 04:10:50;;;;;;;2.65;1.30;;;;;;;23.74;44.48;99354.69;5028042;28;20030;-71
2022/07/18 04:13:16;;;;;;;4.40;1.83;;;;;;;23.70;44.48;99350.75;5027868;28;20040;-70
2022/07/18 04:15:41;;;;;;;3.70;1.90;;;;;;;23.77;44.39;99356.97;5011923;28;20077;-70
2022/07/18 04:18:08;;;;;;;3.45;2.10;;;;;;;23.73;44.05;99362.00;5008077;28;20042;-70
2022/07/18 04:20:35;;;;;;;3.05;1.70;;;;;;;23.66;44.28;99357.66;5008145;28;20282;-70
2022/07/18 04:23:03;;;;;;;4.60;1.60;;;;;;;23.66;44.51;99358.47;5007954;28;20040;-70
2022/07/18 04:25:42;;;;;;;2.92;1.45;;;;;;;23.67;44.40;99357.41;5007739;28;20042;-70
2022/07/18 04:28:11;;;;;;;3.85;1.80;;;;;;;23.71;44.27;99357.81;5007872;28;20278;-70
2022/07/18 04:30:38;;;;;;;4.78;1.63;;;;;;;23.73;44.49;99358.44;5007918;28;20089;-69
2022/07/18 04:33:06;;;;;;;2.72;1.63;;;;;;;23.77;44.11;99362.38;5008109;28;20057;-70
2022/07/18 04:35:32;;;;;;;2.90;1.92;;;;;;;23.77;44.06;99356.97;5007837;28;20239;-70
2022/07/18 04:37:58;;;;;;;4.13;1.58;;;;;;;23.81;44.27;99365.50;5007920;28;20105;-70
2022/07/18 04:40:23;;;;;;;2.50;1.73;;;;;;;23.81;44.32;99355.53;5007936;28;20088;-70
2022/07/18 04:42:49;;;;;;;2.08;1.38;;;;;;;23.85;44.33;99354.03;5007771;28;20136;-70
2022/07/18 04:45:15;;;;;;;3.22;1.65;;;;;;;23.98;43.97;99358.63;5022432;28;20248;-70
2022/07/18 04:47:41;;;;;;;4.00;1.35;;;;;;;24.08;43.83;99345.47;5027315;28;20036;-70
2022/07/18 04:50:07;;;;;;;4.18;2.10;;;;;;;24.12;43.63;99339.63;5027366;28;20046;-71
2022/07/18 04:52:44;;;;;;;2.85;1.75;;;;;;;24.14;43.50;99338.38;5027434;28;20056;-71
2022/07/18 04:55:10;;;;;;;2.53;1.70;;;;;;;24.19;43.60;99340.44;5027177;28;20022;-71
2022/07/18 04:57:36;;;;;;;2.22;1.38;;;;;;;24.23;43.58;99338.97;5027184;28;20030;-71
2022/07/18 05:00:08;;;;;;;4.38;1.67;;;;;;;24.23;43.20;99338.97;5027195;28;20060;-69
2022/07/18 05:02:33;;;;;;;3.97;1.70;;;;;;;24.18;43.47;99336.09;5027385;28;20131;-71
2022/07/18 05:04:59;;;;;;;3.83;1.60;;;;;;;24.15;43.61;99333.81;5011373;28;20030;-70
2022/07/18 05:07:24;;;;;;;2.97;1.40;;;;;;;24.14;43.67;99340.25;5018241;28;20142;-69
2022/07/18 05:09:50;;;;;;;2.70;1.30;;;;;;;24.08;43.36;99342.75;5027096;28;20097;-70
2022/07/18 05:12:15;;;;;;;5.10;1.20;;;;;;;24.07;43.78;99343.00;5027091;28;20040;-70
2022/07/18 05:14:41;;;;;;;2.60;1.40;;;;;;;24.04;43.73;99346.13;5002194;28;20231;-69
2022/07/18 05:17:06;;;;;;;4.28;1.40;;;;;;;24.05;43.69;99343.19;5007072;28;20354;-69
2022/07/18 05:19:31;;;;;;;3.45;1.20;;;;;;;24.06;43.46;99352.13;5007244;28;20038;-70
2022/07/18 05:21:57;;;;;;;2.08;1.20;;;;;;;24.10;43.65;99350.69;5007125;28;20022;-71
2022/07/18 05:24:22;;;;;;;7.70;2.45;;;;;;;24.09;43.35;99354.41;5007247;28;20036;-70
2022/07/18 05:26:48;;;;;;;4.53;1.52;;;;;;;24.04;43.71;99359.63;5007063;28;20046;-70
2022/07/18 05:29:13;;;;;;;3.45;1.23;;;;;;;24.01;43.79;99371.69;5007179;28;20029;-71
2022/07/18 05:31:43;;;;;;;5.63;1.00;;;;;;;23.99;43.46;99371.09;5007104;28;20040;-71
2022/07/18 05:34:08;;;;;;;2.05;1.30;;;;;;;23.98;43.59;99355.91;5007168;28;20022;-71
2022/07/18 05:36:34;;;;;;;8.23;1.38;;;;;;;24.04;43.74;99371.25;5007003;28;20199;-71
2022/07/18 05:39:00;;;;;;;3.53;1.25;;;;;;;24.10;43.83;99368.75;5007133;28;20232;-71
2022/07/18 05:41:27;;;;;;;1.65;1.00;;;;;;;24.13;43.49;99371.03;5007089;28;20224;-70
2022/07/18 05:43:52;;;;;;;1.80;1.10;;;;;;;24.16;43.50;99357.09;5007097;28;20030;-71
2022/07/18 05:46:17;;;;;;;4.05;1.75;;;;;;;24.18;43.60;99355.81;5007067;28;20026;-70
2022/07/18 05:48:43;;;;;;;4.28;1.40;;;;;;;24.16;43.75;99351.69;5006981;28;20128;-70
2022/07/18 05:51:10;;;;;;;2.67;1.20;;;;;;;24.17;43.94;99342.53;5006937;28;20090;-70
2022/07/18 05:53:35;;;;;;;3.70;1.42;;;;;;;24.23;43.90;99341.66;5007858;28;20033;-70
2022/07/18 05:56:00;;;;;;;2.30;1.25;;;;;;;24.27;43.71;99333.94;5026491;28;20029;-70
2022/07/18 05:58:26;;;;;;;3.42;1.77;;;;;;;24.33;43.45;99336.63;5026570;28;20037;-70
2022/07/18 06:00:51;;;;;;;4.18;1.45;;;;;;;24.49;43.58;99329.88;5029112;28;20030;-70
2022/07/18 06:03:17;;;;;;;3.08;1.80;;;;;;;24.63;42.74;99319.78;5030585;28;20081;-71
2022/07/18 06:05:42;;;;;;;2.88;1.75;;;;;;;24.93;42.53;99326.47;5030491;28;20030;-71
2022/07/18 06:08:08;;;;;;;3.70;1.73;;;;;;;25.31;41.90;99320.09;5030193;28;20053;-71
2022/07/18 06:10:33;;;;;;;8.60;3.10;;;;;;;25.55;41.58;99320.31;5030299;28;20049;-70
2022/07/18 06:12:59;;;;;;;5.07;2.25;;;;;;;25.68;40.66;99314.75;5030202;28;20174;-70
2022/07/18 06:15:24;;;;;;;8.75;2.03;;;;;;;25.71;40.41;99314.31;5029986;28;20041;-70
2022/07/18 06:17:51;;;;;;;7.13;2.05;;;;;;;25.77;39.97;99307.16;5030046;28;20049;-70
2022/07/18 06:20:16;;;;;;;4.70;1.80;;;;;;;25.87;40.01;99303.91;5030181;28;20089;-70
2022/07/18 06:22:42;;;;;;;4.40;2.05;;;;;;;25.83;39.94;99306.22;5029970;28;20036;-70
2022/07/18 06:25:08;;;;;;;7.97;2.20;;;;;;;25.82;40.11;99310.00;5029959;28;20250;-70
2022/07/18 06:27:35;;;;;;;6.32;2.60;;;;;;;25.73;39.77;99300.53;5029832;28;20046;-71
2022/07/18 06:30:04;;;;;;;3.88;1.80;;;;;;;25.61;39.67;99299.63;5029900;28;20026;-72
2022/07/18 06:32:30;;;;;;;5.43;1.90;;;;;;;25.50;39.72;99299.34;5029903;28;20050;-71
2022/07/18 06:34:55;;;;;;;5.53;2.15;;;;;;;25.40;39.75;99301.69;5029835;28;20246;-72
2022/07/18 06:37:20;;;;;;;4.13;2.50;;;;;;;25.26;39.71;99295.59;5029801;28;20033;-71
2022/07/18 06:39:46;;;;;;;6.72;2.00;;;;;;;25.11;39.51;99298.63;5012568;28;20105;-72
2022/07/18 06:42:11;;;;;;;3.33;1.95;;;;;;;25.01;39.67;99301.03;5024810;28;20022;-69
2022/07/18 06:44:37;;;;;;;5.32;2.10;;;;;;;24.96;40.02;99297.09;5009837;28;20262;-71
2022/07/18 06:47:02;;;;;;;2.40;1.80;;;;;;;24.96;39.51;99290.88;5009956;28;20073;-71
2022/07/18 06:49:28;;;;;;;5.05;1.80;;;;;;;24.89;39.94;99292.78;5009989;28;20050;-71
2022/07/18 06:51:53;;;;;;;3.55;2.05;;;;;;;24.82;39.75;99290.13;5009879;28;20232;-71
2022/07/18 06:54:20;;;;;;;4.88;2.20;;;;;;;24.78;39.84;99302.44;5009907;28;20179;-72
2022/07/18 06:56:45;;;;;;;3.78;1.80;;;;;;;24.76;39.96;99291.03;5009481;28;20235;-71
2022/07/18 06:59:11;;;;;;;2.95;1.75;;;;;;;24.75;40.20;99290.19;5009751;28;20073;-71
2022/07/18 07:01:36;;;;;;;3.80;2.28;;;;;;;24.75;40.60;99279.38;5009632;28;20038;-71
2022/07/18 07:04:02;;;;;;;5.05;1.65;;;;;;;24.77;40.05;99281.88;5009695;28;20030;-71
2022/07/18 07:06:28;;;;;;;5.38;2.00;;;;;;;24.81;39.45;99293.88;5013106;28;20022;-71
2022/07/18 07:08:53;;;;;;;3.00;1.48;;;;;;;24.82;39.79;99282.88;5029007;28;20092;-70
2022/07/18 07:11:21;;;;;;;3.50;1.85;;;;;;;24.83;39.83;99286.38;5027835;28;20108;-70
2022/07/18 07:13:47;;;;;;;4.82;1.90;;;;;;;24.84;39.83;99296.16;5028513;28;20053;-70
2022/07/18 07:16:13;;;;;;;6.20;1.98;;;;;;;24.88;39.74;99283.00;5009316;28;20061;-70
2022/07/18 07:18:38;;;;;;;8.15;1.73;;;;;;;24.90;39.67;99281.75;5009210;28;20042;-70
2022/07/18 07:21:06;;;;;;;4.25;2.00;;;;;;;24.92;39.70;99287.78;5009300;28;20041;-71
2022/07/18 07:23:31;;;;;;;5.18;2.17;;;;;;;24.91;39.44;99280.72;5009073;28;20041;-71
2022/07/18 07:25:57;;;;;;;6.80;1.98;;;;;;;24.88;39.18;99283.84;5009024;28;20101;-72
2022/07/18 07:28:22;;;;;;;9.18;2.97;;;;;;;24.88;39.29;99278.44;5009027;28;20019;-71
2022/07/18 07:30:48;;;;;;;4.78;2.15;;;;;;;24.87;39.29;99287.59;5009013;28;20026;-71
2022/07/18 07:33:13;;;;;;;5.53;2.03;;;;;;;24.86;39.18;99279.69;5008987;28;20310;-71
2022/07/18 07:35:39;;;;;;;6.72;2.50;;;;;;;24.86;38.93;99285.94;5008833;28;20031;-71
2022/07/18 07:38:04;;;;;;;4.03;1.98;;;;;;;24.82;39.15;99290.97;5008824;28;20049;-71
2022/07/18 07:40:30;;;;;;;5.20;2.25;;;;;;;24.79;39.73;99288.72;5008926;28;20032;-71
2022/07/18 07:43:10;;;;;;;3.17;1.83;;;;;;;24.75;40.17;99297.50;5008795;28;20081;-71
2022/07/18 07:45:36;;;;;;;9.40;2.27;;;;;;;24.75;40.18;99298.31;5008830;28;20019;-69
2022/07/18 07:48:03;;;;;;;5.38;2.65;;;;;;;24.75;39.87;99289.38;5008706;28;20235;-70
2022/07/18 07:50:29;;;;;;;2.65;1.48;;;;;;;24.75;40.38;99286.66;5008807;28;20098;-70
2022/07/18 07:52:55;;;;;;;5.68;1.90;;;;;;;24.76;39.91;99282.91;5008618;28;20014;-70
2022/07/18 07:55:21;;;;;;;5.65;1.98;;;;;;;24.81;40.29;99274.94;5008589;28;20061;-70
2022/07/18 07:57:46;;;;;;;5.43;2.30;;;;;;;24.81;39.95;99277.66;5008750;28;20135;-70
2022/07/18 08:00:12;;;;;;;4.50;2.10;;;;;;;24.83;39.97;99260.16;5008611;28;20136;-70
2022/07/18 08:02:51;;;;;;;6.32;2.03;;;;;;;24.83;39.62;99276.41;5008447;28;20030;-69
2022/07/18 08:05:33;;;;;;;7.50;2.47;;;;;;;24.78;39.39;99269.97;5008382;28;20038;-69
2022/07/18 08:07:59;;;;;;;5.70;2.30;;;;;;;24.71;39.92;99259.19;5023252;28;20099;-71
2022/07/18 08:10:26;;;;;;;6.15;2.13;;;;;;;24.63;39.86;99248.63;5026649;28;20121;-71
2022/07/18 08:12:52;;;;;;;5.18;2.03;;;;;;;24.71;39.69;99261.91;5027535;28;20037;-71
2022/07/18 08:15:18;;;;;;;4.65;1.83;;;;;;;24.75;39.98;99252.31;5027075;28;20191;-71
2022/07/18 08:17:43;;;;;;;4.05;1.92;;;;;;;24.76;39.72;99256.69;5026827;28;20041;-72
2022/07/18 08:20:11;;;;;;;9.40;2.17;;;;;;;24.76;39.87;99248.56;5027070;28;20040;-71
2022/07/18 08:22:52;;;;;;;5.85;2.20;;;;;;;24.75;40.10;99246.91;5024051;28;20037;-72
2022/07/18 08:25:19;;;;;;;5.25;1.90;;;;;;;24.74;40.41;99242.53;5026730;28;20235;-72
2022/07/18 08:27:44;;;;;;;8.30;3.03;;;;;;;24.76;40.23;99245.03;5027241;28;20034;-72
2022/07/18 08:30:10;;;;;;;4.07;2.25;;;;;;;24.81;39.70;99237.06;5026591;28;20105;-72
2022/07/18 08:32:35;;;;;;;7.93;2.70;;;;;;;24.81;39.63;99240.63;5026855;28;20014;-71
2022/07/18 08:35:01;;;;;;;5.90;2.80;;;;;;;24.86;39.71;99237.25;5027323;28;20084;-72
2022/07/18 08:37:26;;;;;;;7.03;2.78;;;;;;;24.86;39.68;99239.94;5026972;28;20041;-74
2022/07/18 08:39:52;;;;;;;5.28;2.58;;;;;;;24.90;39.52;99243.03;5026810;28;20235;-71
2022/07/18 08:42:22;;;;;;;4.20;2.50;;;;;;;24.91;39.67;99237.41;5026966;28;20101;-73
2022/07/18 08:44:48;;;;;;;8.63;2.70;;;;;;;24.92;39.61;99239.06;5026236;28;20045;-73
2022/07/18 08:47:17;;;;;;;4.00;1.85;;;;;;;24.90;40.19;99232.19;5026360;28;20034;-74
2022/07/18 08:49:43;;;;;;;3.92;2.22;;;;;;;24.87;40.26;99230.78;5024916;28;20152;-74
2022/07/18 08:52:09;;;;;;;8.20;1.98;;;;;;;24.82;40.20;99219.78;5025255;28;20022;-71
2022/07/18 08:54:36;;;;;;;5.80;2.30;;;;;;;24.82;40.33;99222.50;5025435;28;20245;-72
2022/07/18 08:57:01;;;;;;;4.03;2.47;;;;;;;24.80;40.51;99230.00;5025128;28;20254;-71
2022/07/18 08:59:27;;;;;;;6.22;2.40;;;;;;;24.83;40.39;99227.69;5009292;28;20034;-71
2022/07/18 09:01:53;;;;;;;8.63;2.78;;;;;;;24.92;39.52;99220.13;5026014;28;20077;-72
2022/07/18 09:04:35;;;;;;;8.35;2.03;;;;;;;24.99;39.31;99220.06;5024616;28;20034;-71
2022/07/18 09:07:00;;;;;;;5.63;2.42;;;;;;;24.98;38.92;99221.09;5022558;28;20033;-71
2022/07/18 09:09:26;;;;;;;3.20;1.50;;;;;;;25.02;38.60;99226.91;5025112;28;20021;-72
2022/07/18 09:11:54;;;;;;;3.53;1.63;;;;;;;25.03;38.24;99225.84;5025937;28;20139;-72
2022/07/18 09:14:35;;;;;;;2.45;1.40;;;;;;;25.03;38.00;99221.25;5025474;28;20030;-68
2022/07/18 09:17:01;;;;;;;5.97;2.05;;;;;;;24.98;38.16;99221.09;5023493;28;20090;-72
2022/07/18 09:19:27;;;;;;;5.28;1.63;;;;;;;24.93;38.59;99210.94;5025355;28;20247;-71
2022/07/18 09:21:52;;;;;;;3.88;1.70;;;;;;;24.90;39.12;99213.25;5021999;28;20030;-72
2022/07/18 09:24:18;;;;;;;4.70;2.17;;;;;;;24.88;38.99;99213.50;5024695;28;20032;-72
2022/07/18 09:26:45;;;;;;;5.72;2.08;;;;;;;24.93;39.13;99215.53;5024703;28;20041;-72
2022/07/18 09:29:15;;;;;;;3.25;1.77;;;;;;;25.01;39.37;99214.41;5025427;28;20030;-71
2022/07/18 09:31:49;;;;;;;3.58;1.70;;;;;;;24.98;39.61;99216.50;5022402;28;20041;-68
2022/07/18 09:34:35;;;;;;;4.40;1.83;;;;;;;24.95;39.89;99216.13;5021051;28;20034;-71
2022/07/18 09:37:19;;;;;;;3.80;2.15;;;;;;;24.94;39.86;99211.78;5023944;28;20027;-70
2022/07/18 09:39:44;;;;;;;4.20;1.67;;;;;;;24.94;39.55;99201.75;5025099;28;20028;-70
2022/07/18 09:42:18;;;;;;;3.47;1.77;;;;;;;25.06;39.39;99206.47;5063471;22;20040;-71
2022/07/18 09:44:59;;;;;;;3.03;1.65;;;;;;;25.09;39.06;99203.28;5091132;28;20027;-67
2022/07/18 09:47:25;;;;;;;7.75;2.13;;;;;;;25.08;39.32;99193.50;5091067;28;20027;-70
2022/07/18 09:49:50;;;;;;;7.40;2.42;;;;;;;25.06;39.27;99198.34;5077928;28;20024;-69
2022/07/18 09:52:16;;;;;;;7.15;2.00;;;;;;;25.04;39.46;99198.53;5081392;28;20237;-71
2022/07/18 09:54:46;;;;;;;6.80;1.80;;;;;;;25.03;39.93;99187.94;5082840;28;20017;-70
2022/07/18 09:57:26;;;;;;;7.25;1.70;;;;;;;24.98;40.03;99185.94;5069505;28;20012;-71
2022/07/18 09:59:52;;;;;;;6.65;2.35;;;;;;;24.96;39.62;99186.13;5087265;28;20031;-70
2022/07/18 10:02:18;;;;;;;4.38;1.98;;;;;;;24.96;39.87;99177.19;5087134;28;20121;-71
2022/07/18 10:04:44;;;;;;;4.22;1.35;;;;;;;24.95;39.39;99181.78;5087142;28;20024;-71
2022/07/18 10:07:10;;;;;;;5.82;1.98;;;;;;;24.94;39.59;99177.41;5087092;28;20209;-71
2022/07/18 10:09:38;;;;;;;3.10;1.52;;;;;;;24.99;39.07;99182.16;5087162;28;20024;-71
2022/07/18 10:12:05;;;;;;;2.97;1.63;;;;;;;25.01;39.08;99181.94;5086929;28;20028;-71
2022/07/18 10:14:32;;;;;;;6.85;1.60;;;;;;;25.02;39.12;99180.88;5086812;28;20020;-70
2022/07/18 10:16:59;;;;;;;3.10;1.27;;;;;;;25.01;39.00;99177.34;5086925;28;20020;-70
2022/07/18 10:19:24;;;;;;;2.35;1.20;;;;;;;25.05;38.63;99180.44;5087102;28;20299;-70
2022/07/18 10:21:50;;;;;;;3.88;1.45;;;;;;;25.07;38.12;99172.94;5086954;28;20016;-70
2022/07/18 10:24:20;;;;;;;4.80;1.75;;;;;;;25.08;38.10;99177.25;5087000;28;20024;-70
2022/07/18 10:27:31;;;;;;;3.22;1.55;;;;;;;25.16;37.87;99173.44;5086850;28;20221;-71
2022/07/18 10:30:13;;;;;;;4.78;1.40;;;;;;;25.10;37.84;99158.91;5049060;28;20028;-71
2022/07/18 10:32:39;;;;;;;4.15;1.67;;;;;;;25.13;37.76;99166.59;5086875;28;20020;-71
2022/07/18 10:35:10;;;;;;;3.15;1.67;;;;;;;25.12;37.81;99162.22;5087055;28;20070;-72
2022/07/18 10:37:36;;;;;;;5.97;1.55;;;;;;;25.11;38.09;99157.88;5086893;28;20024;-72
2022/07/18 10:40:27;;;;;;;2.58;1.15;;;;;;;25.07;38.37;99146.66;5086842;28;20024;-71
2022/07/18 10:43:29;;;;;;;3.72;1.45;;;;;;;25.04;38.40;99154.41;5086557;28;20048;-71
2022/07/18 10:45:55;;;;;;;2.15;1.13;;;;;;;25.05;38.09;99147.97;5067649;28;20098;-71
2022/07/18 10:48:33;;;;;;;7.53;1.83;;;;;;;25.11;37.79;99144.34;5070246;28;20025;-71
2022/07/18 10:51:06;;;;;;;7.93;2.08;;;;;;;25.12;37.44;99140.56;5070287;28;20033;-71
2022/07/18 10:53:54;;;;;;;20.52;5.95;;;;;;;25.16;37.86;99144.50;5070148;28;20021;-71
2022/07/18 10:56:39;;;;;;;20.73;5.35;;;;;;;25.15;37.69;99134.72;5070073;28;20025;-71
2022/07/18 10:59:16;;;;;;;11.15;4.30;;;;;;;25.18;37.26;99136.13;5069589;28;20032;-71
2022/07/18 11:01:50;;;;;;;15.20;4.95;;;;;;;25.19;37.22;99141.34;5070040;28;20261;-71
2022/07/18 11:04:27;;;;;;;12.80;3.67;;;;;;;25.16;37.26;99133.66;5080655;28;20073;-71
2022/07/18 11:06:54;;;;;;;9.60;3.65;;;;;;;25.13;37.22;99134.94;5089939;28;20076;-71
2022/07/18 11:09:41;;;;;;;9.63;3.25;;;;;;;25.09;36.83;99149.97;5089992;28;20031;-71
2022/07/18 11:12:25;;;;;;;11.25;3.33;;;;;;;24.98;36.94;99140.72;5089890;28;20024;-70
2022/07/18 11:15:08;;;;;;;7.03;2.80;;;;;;;24.96;37.42;99134.72;5089685;28;20024;-71
2022/07/18 11:17:52;;;;;;;7.18;2.25;;;;;;;25.04;37.50;99135.47;5089722;28;20078;-70
2022/07/18 11:20:36;;;;;;;6.90;2.35;;;;;;;25.05;37.37;99134.44;5089775;28;20024;-71
2022/07/18 11:23:14;;;;;;;8.48;3.00;;;;;;;25.05;37.44;99137.13;5089728;28;20191;-70
2022/07/18 11:25:40;;;;;;;5.43;2.08;;;;;;;25.01;37.12;99128.63;5090037;28;20040;-71
2022/07/18 11:28:10;;;;;;;5.97;2.58;;;;;;;25.01;36.88;99133.22;5089411;28;20043;-71
2022/07/18 11:30:37;;;;;;;6.20;2.22;;;;;;;25.00;37.25;99135.06;5089549;28;20024;-71
2022/07/18 11:33:02;;;;;;;6.13;2.63;;;;;;;24.98;37.14;99126.38;5089426;28;20229;-71
2022/07/18 11:35:29;;;;;;;5.93;1.88;;;;;;;24.95;37.83;99124.94;5089441;28;20024;-70
2022/07/18 11:37:55;;;;;;;6.40;2.25;;;;;;;24.93;37.93;99123.50;5089393;28;20020;-71
2022/07/18 11:40:21;;;;;;;4.18;1.92;;;;;;;24.89;38.38;99131.25;5089376;28;20036;-71